Time;durP1;ratioP1;P1;durP2;ratioP2;P2;SDS_P1;SDS_P2;PMS_P1;PMS_P2;Temp;Humidity;BMP_temperature;BMP_pressure;BME280_temperature;BME280_humidity;BME280_pressure;Samples;Min_cycle;Max_cycle;Signal;HPM_P1;HPM_P2
2022/06/21 00:01:52;;;;;;;3.30;3.10;;;;;;;;;;5008241;28;20212;-60
2022/06/21 00:04:19;;;;;;;2.90;2.80;;;;;;;;;;5008055;28;20216;-60
2022/06/21 00:06:46;;;;;;;3.50;3.30;;;;;;;;;;5008075;28;20209;-60
2022/06/21 00:09:14;;;;;;;3.05;2.88;;;;;;;;;;5008142;28;20215;-60
2022/06/21 00:11:41;;;;;;;3.00;2.78;;;;;;;;;;5008110;28;20216;-60
2022/06/21 00:14:08;;;;;;;3.53;3.22;;;;;;;;;;5008413;28;20205;-60
2022/06/21 00:16:37;;;;;;;3.00;2.80;;;;;;;;;;5008130;28;20228;-59
2022/06/21 00:19:04;;;;;;;2.75;2.65;;;;;;;;;;5007958;28;20205;-60
2022/06/21 00:21:33;;;;;;;4.03;3.65;;;;;;;;;;5008292;28;20739;-60
2022/06/21 00:24:00;;;;;;;3.50;3.30;;;;;;;;;;5008146;28;20592;-63
2022/06/21 00:26:28;;;;;;;3.47;3.17;;;;;;;;;;5008532;28;20706;-60
2022/06/21 00:28:55;;;;;;;3.40;3.20;;;;;;;;;;5008494;28;20240;-60
2022/06/21 00:31:23;;;;;;;3.03;2.88;;;;;;;;;;5008678;28;20212;-60
2022/06/21 00:33:52;;;;;;;3.13;2.93;;;;;;;;;;5008631;28;20213;-59
2022/06/21 00:36:22;;;;;;;3.20;3.00;;;;;;;;;;5008401;28;20229;-60
2022/06/21 00:38:50;;;;;;;3.45;3.15;;;;;;;;;;5008737;28;20303;-60
2022/06/21 00:41:18;;;;;;;3.17;2.97;;;;;;;;;;5008000;28;20201;-60
2022/06/21 00:43:47;;;;;;;2.77;2.57;;;;;;;;;;5008747;28;20667;-59
2022/06/21 00:46:32;;;;;;;3.40;3.30;;;;;;;;;;5008042;28;20210;-60
2022/06/21 00:49:01;;;;;;;2.80;2.70;;;;;;;;;;5008332;28;20617;-59
2022/06/21 00:51:33;;;;;;;3.30;3.03;;;;;;;;;;5008217;28;20204;-60
2022/06/21 00:54:04;;;;;;;3.80;3.60;;;;;;;;;;5008746;28;20205;-60
2022/06/21 00:56:33;;;;;;;3.23;3.07;;;;;;;;;;5008364;28;20229;-60
2022/06/21 00:59:15;;;;;;;3.58;3.30;;;;;;;;;;5008547;28;20263;-60
2022/06/21 01:01:43;;;;;;;3.38;3.28;;;;;;;;;;5008409;28;20212;-60
2022/06/21 01:04:16;;;;;;;3.40;3.20;;;;;;;;;;5008937;28;20205;-60
2022/06/21 01:06:44;;;;;;;3.30;3.20;;;;;;;;;;5008460;28;20263;-60
2022/06/21 01:09:14;;;;;;;4.17;3.27;;;;;;;;;;5008576;28;20282;-60
2022/06/21 01:11:43;;;;;;;4.20;3.90;;;;;;;;;;5008227;28;20205;-60
2022/06/21 01:14:11;;;;;;;3.17;3.08;;;;;;;;;;5008585;28;20205;-60
2022/06/21 01:16:40;;;;;;;3.63;3.47;;;;;;;;;;5007298;28;20960;-59
2022/06/21 01:19:10;;;;;;;3.72;3.22;;;;;;;;;;5008203;28;20205;-60
2022/06/21 01:21:39;;;;;;;3.80;3.58;;;;;;;;;;5007687;28;20263;-59
2022/06/21 01:24:13;;;;;;;3.60;3.40;;;;;;;;;;5007896;28;20268;-60
2022/06/21 01:26:44;;;;;;;3.93;3.73;;;;;;;;;;5007365;28;20253;-60
2022/06/21 01:29:13;;;;;;;3.43;3.27;;;;;;;;;;5007839;28;20245;-59
2022/06/21 01:31:40;;;;;;;3.40;3.20;;;;;;;;;;5007816;28;20226;-60
2022/06/21 01:34:11;;;;;;;3.07;2.87;;;;;;;;;;5007963;28;20213;-60
2022/06/21 01:36:38;;;;;;;3.07;2.97;;;;;;;;;;5010057;28;20307;-60
2022/06/21 01:39:08;;;;;;;2.73;2.63;;;;;;;;;;5011459;28;20209;-60
2022/06/21 01:41:37;;;;;;;2.83;2.53;;;;;;;;;;5011091;28;20311;-60
2022/06/21 01:44:09;;;;;;;3.00;2.90;;;;;;;;;;5011445;28;20209;-60
2022/06/21 01:46:36;;;;;;;3.17;2.97;;;;;;;;;;5011104;28;20296;-60
2022/06/21 01:49:06;;;;;;;2.43;2.40;;;;;;;;;;5011130;28;20332;-59
2022/06/21 01:51:34;;;;;;;2.70;2.60;;;;;;;;;;5011337;28;20259;-60
2022/06/21 01:54:02;;;;;;;2.30;2.20;;;;;;;;;;5011387;28;20208;-60
2022/06/21 01:56:31;;;;;;;2.70;2.60;;;;;;;;;;5007640;28;20213;-60
2022/06/21 01:58:59;;;;;;;2.73;2.63;;;;;;;;;;5009670;28;20667;-60
2022/06/21 02:01:29;;;;;;;2.73;2.63;;;;;;;;;;5004488;28;20291;-59
2022/06/21 02:03:57;;;;;;;2.30;2.20;;;;;;;;;;5010053;28;20562;-60
2022/06/21 02:06:25;;;;;;;2.77;2.60;;;;;;;;;;5010386;28;20213;-59
2022/06/21 02:08:55;;;;;;;3.30;2.63;;;;;;;;;;5011495;28;20213;-60
2022/06/21 02:11:24;;;;;;;2.27;2.17;;;;;;;;;;5011475;28;20216;-59
2022/06/21 02:14:28;;;;;;;2.60;2.40;;;;;;;;;;5011143;28;20213;-60
2022/06/21 02:16:42;;;;;;;2.20;2.10;;;;;;;;;;5011214;28;20302;-59
2022/06/21 02:19:13;;;;;;;2.70;2.60;;;;;;;;;;5011457;28;20210;-59
2022/06/21 02:21:42;;;;;;;2.27;2.13;;;;;;;;;;5011040;28;20670;-60
2022/06/21 02:24:14;;;;;;;2.00;2.00;;;;;;;;;;5011308;28;20777;-59
2022/06/21 02:26:41;;;;;;;1.90;1.80;;;;;;;;;;5012227;28;20224;-60
2022/06/21 02:29:08;;;;;;;1.93;1.93;;;;;;;;;;5009548;28;20233;-60
2022/06/21 02:31:36;;;;;;;2.30;2.13;;;;;;;;;;5001466;28;20216;-60
2022/06/21 02:34:07;;;;;;;2.17;2.07;;;;;;;;;;5010287;28;20624;-59
2022/06/21 02:36:36;;;;;;;1.80;1.80;;;;;;;;;;5010303;28;20220;-60
2022/06/21 02:39:04;;;;;;;1.97;1.97;;;;;;;;;;5010797;28;20304;-59
2022/06/21 02:41:33;;;;;;;2.20;2.20;;;;;;;;;;5010836;28;20217;-60
2022/06/21 02:44:03;;;;;;;2.17;2.07;;;;;;;;;;5010519;28;20213;-60
2022/06/21 02:46:32;;;;;;;2.17;2.07;;;;;;;;;;5010454;28;20215;-60
2022/06/21 02:49:02;;;;;;;2.00;1.90;;;;;;;;;;5010014;28;20213;-60
2022/06/21 02:51:33;;;;;;;2.33;2.23;;;;;;;;;;5007077;28;20201;-60
2022/06/21 02:54:04;;;;;;;1.90;1.80;;;;;;;;;;5005081;28;20209;-59
2022/06/21 02:56:34;;;;;;;2.17;2.07;;;;;;;;;;5010484;28;20618;-60
2022/06/21 02:59:02;;;;;;;2.03;2.03;;;;;;;;;;5010143;28;20366;-60
2022/06/21 03:01:30;;;;;;;1.97;1.97;;;;;;;;;;5010178;28;20197;-60
2022/06/21 03:03:58;;;;;;;1.90;1.80;;;;;;;;;;5009993;28;20683;-60
2022/06/21 03:06:25;;;;;;;1.90;1.90;;;;;;;;;;5010048;28;20223;-60
2022/06/21 03:08:56;;;;;;;2.47;2.37;;;;;;;;;;5010086;28;20252;-60
2022/06/21 03:11:24;;;;;;;2.27;2.17;;;;;;;;;;5010088;28;20201;-60
2022/06/21 03:13:52;;;;;;;2.67;2.57;;;;;;;;;;5010152;28;20271;-59
2022/06/21 03:16:19;;;;;;;2.40;2.30;;;;;;;;;;5009947;28;20581;-59
2022/06/21 03:18:49;;;;;;;2.73;2.50;;;;;;;;;;5009870;28;20225;-59
2022/06/21 03:21:17;;;;;;;2.40;2.33;;;;;;;;;;5010161;28;20209;-60
2022/06/21 03:23:45;;;;;;;2.07;2.07;;;;;;;;;;5009698;28;20216;-60
2022/06/21 03:26:14;;;;;;;3.00;2.80;;;;;;;;;;5004422;28;20917;-60
2022/06/21 03:28:43;;;;;;;2.47;2.37;;;;;;;;;;5009302;28;20229;-59
2022/06/21 03:31:12;;;;;;;2.47;2.37;;;;;;;;;;5009779;28;20263;-60
2022/06/21 03:33:41;;;;;;;2.50;2.40;;;;;;;;;;5009785;28;20201;-59
2022/06/21 03:36:09;;;;;;;2.40;2.30;;;;;;;;;;5009548;28;20204;-60
2022/06/21 03:38:41;;;;;;;2.60;2.50;;;;;;;;;;5009622;28;20295;-60
2022/06/21 03:43:57;;;;;;;2.87;2.70;;;;;;;;;;4986328;28;20939;-59
2022/06/21 03:46:26;;;;;;;2.90;2.80;;;;;;;;;;5009427;28;20308;-60
2022/06/21 03:48:56;;;;;;;3.07;2.87;;;;;;;;;;5009721;28;20205;-60
2022/06/21 03:51:25;;;;;;;3.33;3.13;;;;;;;;;;5009017;28;20213;-59
2022/06/21 03:53:56;;;;;;;3.03;2.83;;;;;;;;;;5009688;28;20209;-60
2022/06/21 03:56:24;;;;;;;3.30;3.10;;;;;;;;;;5009557;28;20719;-59
2022/06/21 03:58:55;;;;;;;3.70;3.43;;;;;;;;;;5009238;28;20228;-60
2022/06/21 04:01:26;;;;;;;4.10;3.80;;;;;;;;;;5009172;28;20233;-60
2022/06/21 04:03:56;;;;;;;3.93;3.60;;;;;;;;;;5008739;28;20689;-59
2022/06/21 04:06:26;;;;;;;3.67;3.43;;;;;;;;;;5009334;28;20216;-59
2022/06/21 04:08:56;;;;;;;3.67;3.40;;;;;;;;;;5009209;28;20204;-60
2022/06/21 04:11:25;;;;;;;4.47;4.07;;;;;;;;;;5009389;28;20217;-60
2022/06/21 04:13:54;;;;;;;4.57;4.17;;;;;;;;;;5009243;28;20675;-60
2022/06/21 04:16:25;;;;;;;5.67;4.10;;;;;;;;;;5009001;28;20220;-60
2022/06/21 04:18:57;;;;;;;4.23;3.93;;;;;;;;;;5009246;28;20228;-59
2022/06/21 04:21:27;;;;;;;4.63;4.23;;;;;;;;;;5009484;28;20278;-60
2022/06/21 04:23:57;;;;;;;4.20;3.93;;;;;;;;;;4996871;28;20201;-60
2022/06/21 04:26:28;;;;;;;4.70;4.27;;;;;;;;;;5009502;28;20662;-60
2022/06/21 04:28:57;;;;;;;4.40;4.10;;;;;;;;;;5009123;28;20233;-60
2022/06/21 04:31:26;;;;;;;4.50;4.30;;;;;;;;;;5009414;28;20220;-59
2022/06/21 04:33:57;;;;;;;4.80;4.10;;;;;;;;;;5000722;28;20209;-59
2022/06/21 04:36:26;;;;;;;4.47;4.17;;;;;;;;;;5009453;28;20205;-59
2022/06/21 04:38:55;;;;;;;4.80;4.40;;;;;;;;;;5000615;28;20227;-59
2022/06/21 04:41:25;;;;;;;5.10;4.60;;;;;;;;;;5009314;28;20224;-59
2022/06/21 04:43:55;;;;;;;4.47;4.17;;;;;;;;;;5009306;28;20224;-59
2022/06/21 04:46:26;;;;;;;5.37;4.97;;;;;;;;;;5009203;28;20216;-59
2022/06/21 04:48:56;;;;;;;4.97;4.57;;;;;;;;;;5009044;28;20205;-59
2022/06/21 04:51:28;;;;;;;5.70;4.90;;;;;;;;;;5009164;28;20213;-59
2022/06/21 04:53:58;;;;;;;5.17;4.60;;;;;;;;;;5007955;28;20201;-60
2022/06/21 04:56:29;;;;;;;5.33;4.93;;;;;;;;;;5005738;28;20668;-60
2022/06/21 04:58:58;;;;;;;5.27;4.87;;;;;;;;;;5009076;28;20252;-60
2022/06/21 05:01:32;;;;;;;4.90;4.50;;;;;;;;;;5013299;28;20547;-59
2022/06/21 05:04:01;;;;;;;6.00;4.90;;;;;;;;;;5008685;28;20255;-59
2022/06/21 05:06:29;;;;;;;6.37;4.47;;;;;;;;;;5009034;28;20631;-61
2022/06/21 05:08:56;;;;;;;4.43;4.03;;;;;;;;;;5008896;28;20205;-60
2022/06/21 05:11:24;;;;;;;4.13;3.92;;;;;;;;;;5014698;28;20201;-60
2022/06/21 05:13:54;;;;;;;6.57;4.60;;;;;;;;;;5012246;28;20305;-59
2022/06/21 05:16:23;;;;;;;4.73;4.43;;;;;;;;;;5012512;28;20628;-62
2022/06/21 05:18:53;;;;;;;4.77;4.13;;;;;;;;;;5011816;28;20616;-60
2022/06/21 05:21:24;;;;;;;4.73;4.43;;;;;;;;;;5012380;28;20263;-60
2022/06/21 05:23:52;;;;;;;6.40;4.40;;;;;;;;;;5019481;28;20209;-59
2022/06/21 05:26:21;;;;;;;5.33;4.83;;;;;;;;;;5016453;28;20235;-60
2022/06/21 05:28:51;;;;;;;4.65;4.35;;;;;;;;;;5002921;28;20237;-60
2022/06/21 05:31:20;;;;;;;5.25;4.30;;;;;;;;;;5009351;28;20202;-62
2022/06/21 05:33:49;;;;;;;4.65;4.10;;;;;;;;;;5011969;28;20201;-60
2022/06/21 05:36:19;;;;;;;6.57;4.32;;;;;;;;;;5012014;28;20267;-60
2022/06/21 05:38:50;;;;;;;5.43;4.77;;;;;;;;;;5009790;28;20283;-60
2022/06/21 05:41:32;;;;;;;4.55;4.25;;;;;;;;;;5012060;28;20707;-60
2022/06/21 05:44:00;;;;;;;4.47;4.00;;;;;;;;;;5011015;28;20213;-60
2022/06/21 05:46:29;;;;;;;4.78;4.40;;;;;;;;;;5011561;28;20299;-60
2022/06/21 05:48:57;;;;;;;4.32;4.03;;;;;;;;;;5011853;28;20686;-60
2022/06/21 05:51:26;;;;;;;4.97;4.50;;;;;;;;;;5010002;28;20212;-60
2022/06/21 05:53:55;;;;;;;4.63;3.97;;;;;;;;;;5011923;28;20266;-59
2022/06/21 05:56:24;;;;;;;3.80;3.45;;;;;;;;;;5030543;28;20215;-59
2022/06/21 05:58:54;;;;;;;4.78;3.83;;;;;;;;;;5031235;28;20571;-60
2022/06/21 06:01:24;;;;;;;6.13;3.72;;;;;;;;;;5031461;28;20208;-61
2022/06/21 06:03:54;;;;;;;4.03;3.63;;;;;;;;;;5031326;28;20216;-60
2022/06/21 06:06:21;;;;;;;4.00;3.63;;;;;;;;;;5031371;28;20216;-60
2022/06/21 06:08:51;;;;;;;3.17;2.97;;;;;;;;;;5031292;28;20211;-61
2022/06/21 06:11:22;;;;;;;3.50;3.25;;;;;;;;;;5030961;28;20208;-60
2022/06/21 06:13:52;;;;;;;3.90;3.60;;;;;;;;;;5026251;28;20221;-61
2022/06/21 06:16:37;;;;;;;3.67;3.38;;;;;;;;;;5011395;28;20291;-61
2022/06/21 06:19:06;;;;;;;4.18;3.85;;;;;;;;;;5024754;28;20224;-61
2022/06/21 06:21:36;;;;;;;3.63;3.42;;;;;;;;;;5008493;28;20201;-61
2022/06/21 06:24:06;;;;;;;3.35;3.10;;;;;;;;;;5028156;28;20209;-60
2022/06/21 06:26:35;;;;;;;3.30;3.10;;;;;;;;;;5027492;28;20646;-60
2022/06/21 06:29:07;;;;;;;3.53;3.22;;;;;;;;;;5010897;28;20458;-61
2022/06/21 06:31:39;;;;;;;3.00;2.90;;;;;;;;;;5011070;28;20348;-60
2022/06/21 06:34:08;;;;;;;3.80;3.50;;;;;;;;;;5010811;28;20570;-60
2022/06/21 06:36:38;;;;;;;3.30;3.10;;;;;;;;;;5010955;28;20220;-62
2022/06/21 06:39:13;;;;;;;3.20;3.03;;;;;;;;;;5004661;28;20233;-60
2022/06/21 06:41:44;;;;;;;3.88;3.58;;;;;;;;;;4992637;28;20679;-60
2022/06/21 06:44:13;;;;;;;3.20;2.90;;;;;;;;;;5022722;28;20228;-61
2022/06/21 06:46:43;;;;;;;3.65;2.83;;;;;;;;;;5010830;28;20221;-61
2022/06/21 06:49:15;;;;;;;4.90;2.78;;;;;;;;;;5010813;28;20215;-60
2022/06/21 06:51:48;;;;;;;3.42;3.10;;;;;;;;;;5010751;28;20212;-60
2022/06/21 06:54:19;;;;;;;2.97;2.75;;;;;;;;;;5027501;28;20216;-61
2022/06/21 06:56:51;;;;;;;3.85;3.55;;;;;;;;;;5030165;28;20242;-60
2022/06/21 06:59:20;;;;;;;3.50;3.28;;;;;;;;;;5030023;28;20971;-60
2022/06/21 07:01:50;;;;;;;4.45;3.00;;;;;;;;;;5030257;28;20219;-60
2022/06/21 07:04:19;;;;;;;3.45;3.22;;;;;;;;;;5029967;28;20688;-61
2022/06/21 07:06:47;;;;;;;4.07;3.47;;;;;;;;;;5029974;28;20270;-65
2022/06/21 07:09:18;;;;;;;4.43;2.60;;;;;;;;;;5030002;28;20286;-61
2022/06/21 07:11:52;;;;;;;3.28;2.92;;;;;;;;;;5029915;28;20671;-62
2022/06/21 07:14:22;;;;;;;2.80;2.70;;;;;;;;;;5021016;28;20587;-62
2022/06/21 07:16:51;;;;;;;3.58;3.28;;;;;;;;;;5010095;28;20239;-62
2022/06/21 07:19:18;;;;;;;3.13;3.00;;;;;;;;;;5009906;28;20236;-62
2022/06/21 07:21:45;;;;;;;3.22;3.03;;;;;;;;;;5023736;28;20638;-61
2022/06/21 07:24:15;;;;;;;3.85;2.90;;;;;;;;;;5029612;28;20215;-61
2022/06/21 07:26:44;;;;;;;3.55;3.20;;;;;;;;;;5029640;28;20289;-61
2022/06/21 07:29:15;;;;;;;2.80;2.60;;;;;;;;;;5029685;28;20236;-63
2022/06/21 07:31:45;;;;;;;2.80;2.67;;;;;;;;;;5020942;28;20212;-67
2022/06/21 07:34:14;;;;;;;3.22;3.03;;;;;;;;;;4999444;28;20204;-60
2022/06/21 07:36:44;;;;;;;2.95;2.85;;;;;;;;;;5009343;28;20209;-60
2022/06/21 07:39:15;;;;;;;3.83;2.88;;;;;;;;;;5002851;28;20253;-60
2022/06/21 07:41:44;;;;;;;2.80;2.70;;;;;;;;;;4990206;28;20213;-60
2022/06/21 07:44:13;;;;;;;2.72;2.63;;;;;;;;;;4997544;28;20216;-60
2022/06/21 07:46:42;;;;;;;2.40;2.35;;;;;;;;;;5009516;28;20279;-59
2022/06/21 07:49:16;;;;;;;3.00;2.80;;;;;;;;;;5009471;28;20201;-63
2022/06/21 07:51:45;;;;;;;2.97;2.78;;;;;;;;;;5009014;28;20201;-61
2022/06/21 07:54:15;;;;;;;3.28;3.08;;;;;;;;;;4991510;28;20614;-62
2022/06/21 07:56:44;;;;;;;2.80;2.65;;;;;;;;;;5003352;28;20244;-62
2022/06/21 07:59:16;;;;;;;2.88;2.75;;;;;;;;;;5009286;28;20232;-61
2022/06/21 08:07:23;;;;;;;2.45;2.42;;;;;;;;;;4994327;28;20239;-62
2022/06/21 08:09:53;;;;;;;2.75;2.55;;;;;;;;;;5008751;28;20251;-62
2022/06/21 08:12:20;;;;;;;2.58;2.47;;;;;;;;;;5009122;28;20216;-61
2022/06/21 08:14:47;;;;;;;3.13;2.97;;;;;;;;;;5008807;28;20642;-60
2022/06/21 08:17:20;;;;;;;2.97;1.85;;;;;;;;;;5018479;28;20644;-61
2022/06/21 08:19:52;;;;;;;2.03;1.92;;;;;;;;;;5008591;28;20232;-61
2022/06/21 08:22:21;;;;;;;2.08;1.98;;;;;;;;;;5008878;28;20208;-61
2022/06/21 08:24:53;;;;;;;2.55;2.33;;;;;;;;;;5009182;28;20208;-61
2022/06/21 08:27:23;;;;;;;1.92;1.63;;;;;;;;;;5008623;28;20252;-62
2022/06/21 08:29:52;;;;;;;1.70;1.52;;;;;;;;;;5009295;28;20733;-67
2022/06/21 08:32:22;;;;;;;2.05;1.95;;;;;;;;;;5008966;28;20213;-66
2022/06/21 08:34:52;;;;;;;2.15;2.05;;;;;;;;;;5003334;28;20259;-65
2022/06/21 08:37:24;;;;;;;1.95;1.85;;;;;;;;;;4997348;28;20734;-66
2022/06/21 08:39:53;;;;;;;1.88;1.88;;;;;;;;;;5006565;28;20308;-67
2022/06/21 08:42:36;;;;;;;1.80;1.80;;;;;;;;;;5007139;28;20213;-66
2022/06/21 08:48:15;;;;;;;2.80;1.63;;;;;;;;;;4998571;28;20224;-67
2022/06/21 08:50:50;;;;;;;1.73;1.73;;;;;;;;;;5005153;28;20616;-67
2022/06/21 08:53:25;;;;;;;2.70;1.90;;;;;;;;;;5012920;28;20214;-67
2022/06/21 08:55:55;;;;;;;2.08;1.92;;;;;;;;;;5012500;28;20211;-66
2022/06/21 08:58:30;;;;;;;1.88;1.77;;;;;;;;;;5012420;28;20216;-66
2022/06/21 09:01:00;;;;;;;2.10;2.00;;;;;;;;;;5012006;28;20303;-67
2022/06/21 09:03:42;;;;;;;8.55;2.47;;;;;;;;;;5006213;28;20209;-66
2022/06/21 09:06:16;;;;;;;2.00;1.90;;;;;;;;;;5007936;28;20687;-71
2022/06/21 09:08:59;;;;;;;1.42;1.40;;;;;;;;;;5012272;28;20204;-67
2022/06/21 09:11:30;;;;;;;1.67;1.60;;;;;;;;;;5010972;28;20616;-66
2022/06/21 09:14:15;;;;;;;1.70;1.60;;;;;;;;;;5000363;28;20205;-67
2022/06/21 09:16:46;;;;;;;2.15;2.05;;;;;;;;;;5012220;28;20212;-68
2022/06/21 09:19:19;;;;;;;3.03;2.03;;;;;;;;;;5011714;28;20227;-68
2022/06/21 09:21:52;;;;;;;1.60;1.60;;;;;;;;;;4994577;28;20360;-66
2022/06/21 09:24:28;;;;;;;1.65;1.55;;;;;;;;;;5002418;28;20209;-65
2022/06/21 09:26:57;;;;;;;1.80;1.65;;;;;;;;;;4992598;28;20237;-66
2022/06/21 09:29:28;;;;;;;2.78;2.10;;;;;;;;;;5002325;28;20236;-66
2022/06/21 09:32:02;;;;;;;3.03;1.70;;;;;;;;;;5012150;28;20220;-68
2022/06/21 09:34:32;;;;;;;2.47;1.85;;;;;;;;;;5004866;28;20209;-68
2022/06/21 09:37:05;;;;;;;1.77;1.67;;;;;;;;;;4994532;28;20216;-68
2022/06/21 09:39:38;;;;;;;1.90;1.80;;;;;;;;;;5011097;28;20233;-68
2022/06/21 09:42:08;;;;;;;1.70;1.60;;;;;;;;;;5008672;28;20761;-68
2022/06/21 09:44:37;;;;;;;1.65;1.65;;;;;;;;;;5011884;28;20576;-69
2022/06/21 09:47:12;;;;;;;4.15;1.52;;;;;;;;;;5008422;28;20205;-68
2022/06/21 09:49:44;;;;;;;2.13;1.92;;;;;;;;;;5011639;28;20204;-68
2022/06/21 09:52:17;;;;;;;2.08;1.98;;;;;;;;;;5011679;28;20348;-68
2022/06/21 09:54:51;;;;;;;1.70;1.60;;;;;;;;;;5011613;28;20209;-68
2022/06/21 09:57:23;;;;;;;1.42;1.42;;;;;;;;;;5010956;28;20221;-66
2022/06/21 09:59:54;;;;;;;1.63;1.52;;;;;;;;;;5011315;28;20228;-68
2022/06/21 10:02:25;;;;;;;1.50;1.50;;;;;;;;;;5011272;28;20675;-68
2022/06/21 10:04:56;;;;;;;1.77;1.77;;;;;;;;;;5011019;28;20197;-68
2022/06/21 10:07:31;;;;;;;1.52;1.50;;;;;;;;;;5011658;28;20218;-68
2022/06/21 10:10:03;;;;;;;1.48;1.48;;;;;;;;;;5009896;28;20197;-68
2022/06/21 10:12:34;;;;;;;1.67;1.67;;;;;;;;;;5011399;28;20563;-68
2022/06/21 10:15:10;;;;;;;1.83;1.52;;;;;;;;;;5010352;28;20820;-68
2022/06/21 10:17:56;;;;;;;1.75;1.55;;;;;;;;;;5008080;28;20663;-68
2022/06/21 10:20:31;;;;;;;1.70;1.48;;;;;;;;;;4995506;28;20228;-67
2022/06/21 10:23:07;;;;;;;3.92;1.63;;;;;;;;;;5009733;28;20575;-68
2022/06/21 10:25:50;;;;;;;1.63;1.52;;;;;;;;;;5010477;28;20232;-67
2022/06/21 10:28:24;;;;;;;1.30;1.30;;;;;;;;;;5010268;28;20774;-67
2022/06/21 10:30:54;;;;;;;1.27;1.27;;;;;;;;;;5007291;28;20200;-66
2022/06/21 10:33:30;;;;;;;1.40;1.27;;;;;;;;;;5011273;28;20205;-67
2022/06/21 10:36:12;;;;;;;1.60;1.60;;;;;;;;;;5010637;28;20201;-67
2022/06/21 10:38:55;;;;;;;2.15;1.95;;;;;;;;;;5001127;28;20217;-66
2022/06/21 10:41:33;;;;;;;1.25;1.25;;;;;;;;;;5008504;28;21234;-66
2022/06/21 10:44:20;;;;;;;1.30;1.30;;;;;;;;;;5010446;28;20221;-63
2022/06/21 10:46:49;;;;;;;2.13;2.03;;;;;;;;;;5010448;28;20732;-62
2022/06/21 10:49:35;;;;;;;1.88;1.75;;;;;;;;;;5008248;28;20302;-62
2022/06/21 10:52:15;;;;;;;1.20;1.20;;;;;;;;;;5010409;28;20208;-64
2022/06/21 10:54:48;;;;;;;1.50;1.50;;;;;;;;;;5010530;28;20204;-67
2022/06/21 10:57:22;;;;;;;1.55;1.55;;;;;;;;;;5010522;28;20694;-64
2022/06/21 11:02:44;;;;;;;1.70;1.30;;;;;;;;;;5006907;28;20343;-64
2022/06/21 11:05:17;;;;;;;1.60;1.50;;;;;;;;;;4991283;28;20220;-64
2022/06/21 11:07:47;;;;;;;2.38;1.08;;;;;;;;;;5007043;28;20212;-65
2022/06/21 11:10:18;;;;;;;1.52;1.25;;;;;;;;;;5004670;28;20244;-64
2022/06/21 11:12:56;;;;;;;1.25;1.25;;;;;;;;;;5009419;28;20259;-64
2022/06/21 11:15:28;;;;;;;1.30;1.15;;;;;;;;;;5006742;28;20205;-64
2022/06/21 11:18:04;;;;;;;1.80;1.45;;;;;;;;;;5001023;28;20236;-64
2022/06/21 11:20:33;;;;;;;1.75;1.05;;;;;;;;;;5005248;28;20232;-64
2022/06/21 11:23:09;;;;;;;1.38;1.30;;;;;;;;;;5009676;28;20213;-60
2022/06/21 11:25:42;;;;;;;1.75;1.02;;;;;;;;;;5007002;28;20672;-60
2022/06/21 11:28:17;;;;;;;42.42;22.48;;;;;;;;;;5007343;28;20248;-62
2022/06/21 11:30:49;;;;;;;1.98;1.67;;;;;;;;;;5008282;28;20687;-61
2022/06/21 11:33:19;;;;;;;1.58;1.08;;;;;;;;;;4997031;28;20654;-61
2022/06/21 11:35:50;;;;;;;0.95;0.95;;;;;;;;;;5001616;28;20635;-61
2022/06/21 11:38:32;;;;;;;1.67;1.58;;;;;;;;;;5003903;28;20209;-61
2022/06/21 11:41:02;;;;;;;1.08;1.08;;;;;;;;;;4993068;28;20640;-61
2022/06/21 11:43:37;;;;;;;1.33;1.30;;;;;;;;;;5004860;28;20216;-63
2022/06/21 11:46:10;;;;;;;5.57;1.17;;;;;;;;;;5005525;28;20267;-62
2022/06/21 11:48:51;;;;;;;1.25;1.08;;;;;;;;;;4996256;28;20212;-61
2022/06/21 11:51:25;;;;;;;1.10;1.10;;;;;;;;;;4999589;28;20213;-61
2022/06/21 11:53:56;;;;;;;1.35;1.25;;;;;;;;;;5009285;28;20578;-63
2022/06/21 11:56:27;;;;;;;1.00;1.00;;;;;;;;;;4999878;28;20267;-63
2022/06/21 11:58:58;;;;;;;1.80;1.05;;;;;;;;;;5004971;28;20794;-63
2022/06/21 12:01:29;;;;;;;1.23;0.90;;;;;;;;;;4998102;28;20302;-64
2022/06/21 12:04:01;;;;;;;1.10;1.10;;;;;;;;;;5003307;28;20216;-63
2022/06/21 12:06:31;;;;;;;1.33;1.13;;;;;;;;;;5004624;28;20267;-62
2022/06/21 12:09:02;;;;;;;1.10;1.10;;;;;;;;;;5004543;28;20209;-63
2022/06/21 12:11:35;;;;;;;1.05;1.05;;;;;;;;;;5002912;28;20205;-63
2022/06/21 12:14:12;;;;;;;1.35;0.93;;;;;;;;;;5003629;28;20255;-63
2022/06/21 12:16:44;;;;;;;1.00;1.00;;;;;;;;;;4999977;28;20674;-63
2022/06/21 12:19:13;;;;;;;1.10;1.10;;;;;;;;;;5004621;28;20216;-63
2022/06/21 12:21:46;;;;;;;1.60;1.20;;;;;;;;;;5001491;28;20244;-64
2022/06/21 12:24:15;;;;;;;1.10;1.10;;;;;;;;;;5000139;28;20212;-63
2022/06/21 12:26:43;;;;;;;1.10;1.08;;;;;;;;;;5022521;23;20236;-64
2022/06/21 12:29:15;;;;;;;1.02;1.02;;;;;;;;;;5023527;28;20597;-63
2022/06/21 12:31:47;;;;;;;0.88;0.88;;;;;;;;;;5023702;28;20243;-63
2022/06/21 12:34:16;;;;;;;0.80;0.80;;;;;;;;;;5023411;28;20609;-64
2022/06/21 12:36:45;;;;;;;1.42;1.33;;;;;;;;;;5022779;28;20728;-63
2022/06/21 12:39:16;;;;;;;1.10;1.10;;;;;;;;;;5022892;28;20282;-62
2022/06/21 12:41:48;;;;;;;1.92;1.10;;;;;;;;;;5023744;28;20789;-63
2022/06/21 12:44:24;;;;;;;0.80;0.80;;;;;;;;;;5023572;28;20631;-62
2022/06/21 12:46:56;;;;;;;1.08;1.08;;;;;;;;;;5024458;28;20219;-63
2022/06/21 12:49:30;;;;;;;0.80;0.80;;;;;;;;;;5024561;28;20216;-63
2022/06/21 12:51:59;;;;;;;1.00;1.00;;;;;;;;;;5023795;28;20214;-64
2022/06/21 12:54:41;;;;;;;1.15;1.08;;;;;;;;;;5024236;28;20212;-64
2022/06/21 12:57:27;;;;;;;1.55;1.10;;;;;;;;;;5024453;28;20219;-63
2022/06/21 13:00:07;;;;;;;0.80;0.80;;;;;;;;;;5024502;28;20690;-65
2022/06/21 13:02:45;;;;;;;0.55;0.55;;;;;;;;;;5020188;28;20688;-64
2022/06/21 13:05:17;;;;;;;0.55;0.55;;;;;;;;;;5024067;28;20666;-64
2022/06/21 13:08:00;;;;;;;1.25;0.80;;;;;;;;;;5024372;28;20213;-64
2022/06/21 13:10:36;;;;;;;0.70;0.70;;;;;;;;;;5004149;28;20220;-64
2022/06/21 13:13:11;;;;;;;0.80;0.80;;;;;;;;;;5024178;28;20318;-64
2022/06/21 13:15:48;;;;;;;0.73;0.73;;;;;;;;;;5024267;28;20216;-63
2022/06/21 13:18:25;;;;;;;0.85;0.70;;;;;;;;;;5024039;28;20211;-64
2022/06/21 13:20:57;;;;;;;2.50;0.75;;;;;;;;;;5024155;28;20236;-62
2022/06/21 13:23:31;;;;;;;1.00;0.98;;;;;;;;;;5024407;28;20235;-62
2022/06/21 13:26:02;;;;;;;1.10;1.00;;;;;;;;;;5023668;28;20335;-63
2022/06/21 13:28:52;;;;;;;1.00;1.00;;;;;;;;;;5005311;28;20300;-63
2022/06/21 13:31:23;;;;;;;0.82;0.82;;;;;;;;;;5022555;28;20586;-62
2022/06/21 13:33:52;;;;;;;0.90;0.90;;;;;;;;;;5011462;28;20303;-62
2022/06/21 13:36:22;;;;;;;1.00;1.00;;;;;;;;;;5025829;28;20212;-64
2022/06/21 13:38:51;;;;;;;2.97;1.00;;;;;;;;;;5018555;28;20325;-62
2022/06/21 13:44:08;;;;;;;0.90;0.90;;;;;;;;;;5027431;28;20688;-62
2022/06/21 13:46:39;;;;;;;0.75;0.75;;;;;;;;;;5023865;28;20217;-61
2022/06/21 13:49:15;;;;;;;3.25;1.02;;;;;;;;;;5007335;28;20217;-61
2022/06/21 13:51:45;;;;;;;0.90;0.82;;;;;;;;;;5007212;28;20255;-62
2022/06/21 13:54:15;;;;;;;0.90;0.90;;;;;;;;;;5021555;28;20212;-63
2022/06/21 13:56:46;;;;;;;0.93;0.93;;;;;;;;;;5026554;28;20250;-62
2022/06/21 13:59:15;;;;;;;1.10;1.10;;;;;;;;;;5026661;28;20274;-62
2022/06/21 14:01:46;;;;;;;0.80;0.80;;;;;;;;;;5023875;28;20657;-62
2022/06/21 14:04:17;;;;;;;2.42;1.00;;;;;;;;;;5014459;28;20215;-62
2022/06/21 14:06:49;;;;;;;1.15;1.15;;;;;;;;;;5026452;28;20778;-62
2022/06/21 14:09:19;;;;;;;1.10;1.10;;;;;;;;;;5025731;28;20219;-61
2022/06/21 14:11:49;;;;;;;2.70;1.15;;;;;;;;;;5023694;28;20271;-61
2022/06/21 14:14:19;;;;;;;1.15;1.05;;;;;;;;;;5023644;28;20651;-61
2022/06/21 14:16:49;;;;;;;0.90;0.90;;;;;;;;;;5023636;28;20208;-61
2022/06/21 14:19:19;;;;;;;1.17;0.85;;;;;;;;;;5005175;28;20209;-61
2022/06/21 14:21:53;;;;;;;1.30;1.20;;;;;;;;;;5013614;28;20318;-61
2022/06/21 14:24:22;;;;;;;0.95;0.95;;;;;;;;;;5007194;28;20347;-60
2022/06/21 14:26:51;;;;;;;1.42;0.80;;;;;;;;;;5008748;28;20306;-61
2022/06/21 14:29:23;;;;;;;2.00;1.00;;;;;;;;;;5026357;28;20239;-61
2022/06/21 14:32:03;;;;;;;1.20;1.20;;;;;;;;;;5025791;28;20637;-61
2022/06/21 14:34:34;;;;;;;1.15;1.15;;;;;;;;;;5026440;28;20216;-61
2022/06/21 14:37:03;;;;;;;1.75;0.90;;;;;;;;;;5023042;28;20227;-61
2022/06/21 14:39:34;;;;;;;1.00;1.00;;;;;;;;;;5012009;28;20225;-61
2022/06/21 14:42:17;;;;;;;1.00;1.00;;;;;;;;;;5019751;28;20681;-61
2022/06/21 14:44:48;;;;;;;1.27;1.27;;;;;;;;;;5025199;28;20208;-62
2022/06/21 14:47:22;;;;;;;1.00;1.00;;;;;;;;;;5021269;28;21236;-61
2022/06/21 14:49:51;;;;;;;1.75;1.00;;;;;;;;;;5006505;28;20213;-61
2022/06/21 14:52:35;;;;;;;1.13;1.08;;;;;;;;;;5011966;28;20659;-61
2022/06/21 14:55:14;;;;;;;0.95;0.95;;;;;;;;;;5025456;28;20862;-61
2022/06/21 14:57:46;;;;;;;3.70;1.05;;;;;;;;;;5025657;28;20208;-62
2022/06/21 15:00:16;;;;;;;0.90;0.90;;;;;;;;;;5006710;28;20213;-61
2022/06/21 15:03:05;;;;;;;1.15;1.10;;;;;;;;;;5012361;28;20233;-61
2022/06/21 15:05:34;;;;;;;1.75;1.10;;;;;;;;;;5006804;28;20239;-61
2022/06/21 15:08:05;;;;;;;1.25;0.95;;;;;;;;;;5013319;28;20239;-61
2022/06/21 15:10:34;;;;;;;1.02;1.00;;;;;;;;;;5025227;28;20216;-63
2022/06/21 15:13:05;;;;;;;0.93;0.93;;;;;;;;;;5015266;28;20209;-61
2022/06/21 15:15:34;;;;;;;0.85;0.85;;;;;;;;;;5024710;28;20702;-62
2022/06/21 15:18:07;;;;;;;1.00;1.00;;;;;;;;;;5025388;28;20736;-62
2022/06/21 15:23:36;;;;;;;0.95;0.95;;;;;;;;;;5001769;28;20305;-62
2022/06/21 15:26:06;;;;;;;1.05;1.05;;;;;;;;;;5004756;28;20245;-62
2022/06/21 15:28:39;;;;;;;1.50;1.40;;;;;;;;;;5006095;28;20213;-62